Time;durP1;ratioP1;P1;durP2;ratioP2;P2;SDS_P1;SDS_P2;PMS_P1;PMS_P2;Temp;Humidity;BMP_temperature;BMP_pressure;BME280_temperature;BME280_humidity;BME280_pressure;Samples;Min_cycle;Max_cycle;Signal;HPM_P1;HPM_P2
2023/08/31 00:09:09;;;;;;;6.90;6.30;;;;;;;14.60;100.00;98595.17;432575;1268;139936;-66
2023/08/31 00:19:15;;;;;;;8.80;7.80;;;;;;;14.62;100.00;98595.14;432424;1268;139420;-66
2023/08/31 00:29:21;;;;;;;7.70;7.10;;;;;;;14.53;100.00;98603.33;431902;1270;139401;-66
2023/08/31 00:39:27;;;;;;;6.50;5.90;;;;;;;14.51;100.00;98610.83;432249;1270;139411;-67
2023/08/31 00:49:34;;;;;;;7.30;6.50;;;;;;;14.49;100.00;98605.30;432758;1268;140841;-65
2023/08/31 00:59:41;;;;;;;10.10;5.80;;;;;;;14.44;100.00;98592.95;432766;1267;139542;-66
2023/08/31 01:09:56;;;;;;;7.20;5.50;;;;;;;14.35;100.00;98585.36;432777;1268;139991;-66
2023/08/31 01:20:05;;;;;;;4.90;4.50;;;;;;;14.32;100.00;98592.87;432678;1270;140398;-67
2023/08/31 01:30:12;;;;;;;6.00;5.40;;;;;;;14.29;100.00;98600.14;432947;1270;139388;-66
2023/08/31 01:40:23;;;;;;;6.80;6.10;;;;;;;14.27;100.00;98608.64;431896;1268;139466;-67
2023/08/31 01:50:29;;;;;;;4.90;4.50;;;;;;;14.21;100.00;98608.66;432245;1268;139514;-66
2023/08/31 02:00:35;;;;;;;6.20;5.40;;;;;;;14.13;100.00;98605.90;432381;1265;140029;-66
2023/08/31 02:10:41;;;;;;;6.00;5.30;;;;;;;14.09;100.00;98607.55;432269;1268;139588;-66
2023/08/31 02:20:47;;;;;;;6.10;5.40;;;;;;;14.07;100.00;98609.45;432654;1268;139391;-67
2023/08/31 02:31:00;;;;;;;6.90;6.30;;;;;;;14.13;100.00;98615.63;432234;1268;139541;-66
2023/08/31 02:41:06;;;;;;;9.10;7.40;;;;;;;14.11;100.00;98618.02;432200;1268;139592;-65
2023/08/31 02:51:12;;;;;;;8.60;7.40;;;;;;;14.10;100.00;98616.38;431956;1268;140409;-66
2023/08/31 03:01:18;;;;;;;7.80;6.60;;;;;;;14.06;100.00;98618.31;432157;1265;139189;-66
2023/08/31 03:11:24;;;;;;;8.10;7.30;;;;;;;14.06;100.00;98613.06;432098;1267;141369;-65
2023/08/31 03:21:30;;;;;;;8.20;7.50;;;;;;;14.00;100.00;98608.14;432001;1268;139865;-65
2023/08/31 03:31:36;;;;;;;8.20;7.40;;;;;;;13.99;100.00;98623.10;431999;1268;141342;-65
2023/08/31 03:41:41;;;;;;;7.70;7.00;;;;;;;13.90;100.00;98626.73;432036;1268;140966;-65
2023/08/31 03:51:47;;;;;;;7.80;7.00;;;;;;;13.81;100.00;98632.66;432106;1267;140497;-67
2023/08/31 04:01:54;;;;;;;10.10;6.40;;;;;;;13.70;100.00;98633.83;432044;1269;139494;-65
2023/08/31 04:12:00;;;;;;;11.70;6.20;;;;;;;13.61;100.00;98646.45;432114;1270;140128;-67
2023/08/31 04:22:06;;;;;;;7.50;6.70;;;;;;;13.67;100.00;98661.86;432064;1269;139687;-67
2023/08/31 04:32:12;;;;;;;9.00;6.90;;;;;;;13.78;100.00;98673.76;431957;1269;139415;-66
2023/08/31 04:42:18;;;;;;;10.00;9.10;;;;;;;13.98;100.00;98679.08;432058;1270;139536;-66
2023/08/31 04:52:24;;;;;;;9.20;8.40;;;;;;;14.19;100.00;98682.80;432454;1267;139707;-66
2023/08/31 05:02:30;;;;;;;8.70;7.90;;;;;;;14.53;100.00;98679.80;432018;1268;139574;-66
2023/08/31 05:12:36;;;;;;;8.90;8.10;;;;;;;14.67;100.00;98687.30;432226;1268;139357;-66
2023/08/31 05:22:41;;;;;;;10.60;8.10;;;;;;;15.07;100.00;98690.92;431942;1268;140784;-67
2023/08/31 05:32:47;;;;;;;9.60;6.90;;;;;;;15.59;100.00;98700.00;432164;1265;139768;-67
2023/08/31 05:42:53;;;;;;;7.50;6.50;;;;;;;16.06;100.00;98706.77;432310;1270;140632;-67
2023/08/31 05:52:59;;;;;;;9.70;5.70;;;;;;;16.96;100.00;98712.96;432113;1268;140051;-67
2023/08/31 06:03:05;;;;;;;6.00;5.40;;;;;;;18.08;100.00;98719.60;432263;1269;140618;-67
2023/08/31 06:13:11;;;;;;;6.00;5.40;;;;;;;19.84;100.00;98728.63;432750;1266;140342;-67
2023/08/31 06:23:17;;;;;;;6.30;5.70;;;;;;;20.20;96.82;98735.83;431293;1269;141885;-68
2023/08/31 06:33:23;;;;;;;6.60;4.80;;;;;;;21.93;99.12;98734.27;431334;1269;139312;-67
2023/08/31 06:43:29;;;;;;;5.00;4.30;;;;;;;28.21;92.48;98727.73;431579;1269;139971;-67
2023/08/31 06:53:35;;;;;;;6.00;3.10;;;;;;;31.41;81.80;98720.68;432158;1267;139874;-67
2023/08/31 07:03:41;;;;;;;6.10;4.00;;;;;;;33.34;72.64;98714.71;432208;1270;138781;-68
2023/08/31 07:13:47;;;;;;;4.70;3.30;;;;;;;35.62;66.21;98712.84;432788;1269;138723;-66
2023/08/31 07:23:54;;;;;;;4.70;2.40;;;;;;;38.02;60.25;98708.36;432827;1269;139676;-69
2023/08/31 07:34:00;;;;;;;4.50;2.40;;;;;;;41.16;51.01;98713.82;432309;1268;138824;-68
2023/08/31 07:44:07;;;;;;;2.80;1.70;;;;;;;42.54;42.27;98729.55;432495;1269;138754;-68
2023/08/31 07:54:19;;;;;;;3.30;1.40;;;;;;;40.31;38.52;98730.29;432239;1267;138447;-69
2023/08/31 08:04:26;;;;;;;3.60;1.20;;;;;;;39.23;37.61;98741.03;432351;1269;138917;-68
2023/08/31 08:14:33;;;;;;;4.90;0.90;;;;;;;39.88;37.64;98750.55;432361;1269;139083;-69
2023/08/31 08:24:39;;;;;;;1.70;1.30;;;;;;;42.64;34.92;98757.85;432209;1267;140013;-69
2023/08/31 08:34:48;;;;;;;2.00;1.10;;;;;;;39.62;31.30;98767.31;432662;1267;139458;-69
2023/08/31 08:44:55;;;;;;;3.10;1.50;;;;;;;34.91;32.94;98762.69;432173;1269;140182;-68
2023/08/31 08:55:02;;;;;;;3.90;1.90;;;;;;;31.62;34.80;98763.20;432467;1270;138481;-67
2023/08/31 09:05:09;;;;;;;1.60;1.20;;;;;;;29.63;37.72;98758.09;432319;1267;138799;-66
2023/08/31 09:15:15;;;;;;;4.40;1.20;;;;;;;29.92;39.00;98760.38;431997;1267;138437;-66
2023/08/31 09:25:21;;;;;;;1.60;1.40;;;;;;;30.23;39.00;98766.15;431997;1267;138879;-67
2023/08/31 09:35:27;;;;;;;4.80;1.40;;;;;;;30.22;38.96;98766.52;431889;1267;138852;-67
2023/08/31 09:45:35;;;;;;;5.30;1.40;;;;;;;29.46;39.31;98778.02;432226;1267;138741;-67
2023/08/31 09:55:47;;;;;;;1.90;1.80;;;;;;;28.71;39.77;98787.13;432103;1267;139215;-67
2023/08/31 10:05:53;;;;;;;1.90;1.60;;;;;;;28.03;40.57;98798.41;432145;1265;138643;-67
2023/08/31 10:15:59;;;;;;;6.10;2.00;;;;;;;27.11;41.78;98798.79;432633;1269;139492;-67
2023/08/31 10:26:05;;;;;;;2.00;1.30;;;;;;;26.81;42.75;98794.77;432544;1268;138519;-67
2023/08/31 10:36:15;;;;;;;2.80;1.90;;;;;;;26.57;43.33;98788.04;432894;1268;139719;-67
2023/08/31 10:46:28;;;;;;;2.20;2.00;;;;;;;25.88;43.92;98781.55;432013;1265;138809;-67
2023/08/31 10:56:34;;;;;;;1.80;1.70;;;;;;;25.44;45.16;98781.90;432323;1270;138628;-67
2023/08/31 11:06:40;;;;;;;2.00;1.60;;;;;;;25.34;45.58;98777.73;432081;1267;139546;-66
2023/08/31 11:16:47;;;;;;;2.50;2.30;;;;;;;25.25;45.58;98781.91;431912;1269;138499;-66
2023/08/31 11:26:54;;;;;;;6.20;3.50;;;;;;;24.63;45.99;98794.93;432143;1265;141418;-66
2023/08/31 11:37:00;;;;;;;5.40;4.70;;;;;;;23.33;49.89;98811.50;432652;1266;138969;-66
2023/08/31 11:47:06;;;;;;;6.70;5.10;;;;;;;22.50;53.85;98806.36;432142;1268;139215;-66
2023/08/31 11:57:14;;;;;;;5.20;4.20;;;;;;;22.54;56.59;98811.57;431594;1267;188348;-66
2023/08/31 12:07:19;;;;;;;;;;;;;;;22.60;56.15;98810.96;431731;1267;138443;-66
2023/08/31 12:17:25;;;;;;;3.60;3.30;;;;;;;22.42;56.09;98812.52;431669;1270;126483;-66
2023/08/31 12:27:30;;;;;;;4.60;3.60;;;;;;;21.78;55.74;98828.95;431832;1267;139327;-66
2023/08/31 12:37:36;;;;;;;4.50;3.90;;;;;;;20.46;56.92;98876.92;431757;1265;139176;-67
2023/08/31 12:47:42;;;;;;;5.20;4.70;;;;;;;18.98;60.22;98918.09;432211;1268;138607;-67
2023/08/31 12:57:48;;;;;;;7.00;5.40;;;;;;;18.25;64.18;98928.88;432257;1267;139505;-68
2023/08/31 13:07:54;;;;;;;6.30;3.80;;;;;;;17.92;66.75;98938.91;431930;1267;140127;-66
2023/08/31 13:18:00;;;;;;;4.10;3.70;;;;;;;17.96;68.31;98936.46;432349;1265;139381;-67
2023/08/31 13:28:06;;;;;;;3.60;3.20;;;;;;;18.40;69.55;98930.98;432127;1269;139130;-68
2023/08/31 13:38:13;;;;;;;4.70;3.00;;;;;;;18.56;68.56;98941.77;432025;1269;139700;-67
2023/08/31 13:48:20;;;;;;;2.20;2.10;;;;;;;18.33;68.84;98928.73;432214;1267;139576;-70
2023/08/31 13:58:26;;;;;;;3.10;2.50;;;;;;;18.47;68.96;98918.17;432582;1265;139120;-66
2023/08/31 14:08:32;;;;;;;4.30;2.10;;;;;;;18.61;69.46;98916.88;432202;1269;139664;-67
2023/08/31 14:18:38;;;;;;;2.20;2.10;;;;;;;18.68;68.64;98928.61;431619;1268;139551;-67
2023/08/31 14:28:45;;;;;;;1.20;1.20;;;;;;;18.33;68.79;98936.25;432075;1268;139190;-67
2023/08/31 14:38:51;;;;;;;1.80;1.30;;;;;;;18.23;67.93;98934.30;432114;1265;139567;-67
2023/08/31 14:48:56;;;;;;;1.40;1.10;;;;;;;18.19;67.35;98949.52;432221;1265;140177;-65
2023/08/31 14:59:02;;;;;;;1.50;1.20;;;;;;;18.05;66.99;98966.34;432240;1267;140561;-66
2023/08/31 15:09:08;;;;;;;1.60;1.20;;;;;;;17.75;66.80;98975.89;432237;1264;140635;-67
2023/08/31 15:19:14;;;;;;;2.00;1.60;;;;;;;17.65;67.36;98993.33;432409;1264;139184;-66
2023/08/31 15:29:20;;;;;;;6.80;1.80;;;;;;;17.62;67.61;99001.83;432319;1265;139493;-66
2023/08/31 15:39:26;;;;;;;3.80;1.60;;;;;;;17.40;67.85;99019.75;432803;1267;139702;-67
2023/08/31 15:49:31;;;;;;;1.50;1.40;;;;;;;17.48;68.57;99021.98;431924;1269;139711;-65
2023/08/31 15:59:38;;;;;;;3.20;1.40;;;;;;;17.81;68.57;99029.58;432022;1267;140371;-66
2023/08/31 16:09:44;;;;;;;4.90;1.60;;;;;;;17.70;67.39;99029.46;432273;1265;139859;-67
2023/08/31 16:19:50;;;;;;;2.20;1.40;;;;;;;17.35;67.34;99040.31;432478;1268;139424;-67
2023/08/31 16:29:56;;;;;;;1.80;1.70;;;;;;;17.00;68.03;99040.41;432495;1267;140579;-66
2023/08/31 16:40:04;;;;;;;3.20;1.70;;;;;;;16.77;68.94;99033.11;432111;1269;139792;-67
2023/08/31 16:50:12;;;;;;;2.30;1.30;;;;;;;16.51;69.62;99036.88;432267;1265;140746;-68
2023/08/31 17:00:20;;;;;;;4.10;2.30;;;;;;;16.20;70.25;99035.34;433062;1265;139416;-68
2023/08/31 17:10:26;;;;;;;4.60;1.80;;;;;;;15.93;71.18;99045.53;432780;1267;139509;-66
2023/08/31 17:20:32;;;;;;;5.30;1.80;;;;;;;15.61;72.37;99051.79;432460;1265;141700;-67
2023/08/31 17:30:38;;;;;;;5.50;2.20;;;;;;;15.31;73.76;99059.70;432378;1267;139653;-67
2023/08/31 17:40:48;;;;;;;8.30;2.00;;;;;;;15.03;74.83;99066.11;432213;1265;139369;-67
2023/08/31 17:50:54;;;;;;;5.30;2.50;;;;;;;14.66;76.16;99073.16;432499;1265;139435;-66
2023/08/31 18:01:00;;;;;;;3.10;1.80;;;;;;;14.27;77.69;99078.34;432312;1264;140375;-67
2023/08/31 18:11:06;;;;;;;5.10;1.80;;;;;;;13.91;78.90;99089.84;432228;1267;139912;-66
2023/08/31 18:21:12;;;;;;;8.70;2.30;;;;;;;13.57;80.22;99097.23;432221;1267;139320;-68
2023/08/31 18:31:18;;;;;;;9.40;2.90;;;;;;;13.25;81.56;99104.11;432356;1267;139208;-67
2023/08/31 18:41:24;;;;;;;6.20;2.80;;;;;;;12.98;82.85;99114.41;432289;1267;139199;-65
2023/08/31 18:51:33;;;;;;;5.10;3.10;;;;;;;12.76;83.94;99121.92;431985;1268;139762;-67
2023/08/31 19:01:39;;;;;;;6.50;2.30;;;;;;;12.58;84.92;99131.83;432045;1267;140492;-66
2023/08/31 19:11:45;;;;;;;9.30;3.50;;;;;;;12.40;86.18;99136.00;432042;1269;140414;-66
2023/08/31 19:21:51;;;;;;;7.90;5.20;;;;;;;12.25;87.14;99142.10;432248;1265;140865;-67
2023/08/31 19:31:58;;;;;;;5.80;2.80;;;;;;;12.12;88.36;99152.91;432137;1269;141046;-67
2023/08/31 19:42:04;;;;;;;3.90;3.50;;;;;;;11.98;88.64;99167.80;432548;1269;139476;-67
2023/08/31 19:52:10;;;;;;;5.20;4.00;;;;;;;11.97;88.79;99171.89;432546;1265;139375;-67
2023/08/31 20:02:16;;;;;;;2.80;1.80;;;;;;;12.20;88.04;99162.98;432268;1269;139269;-67
2023/08/31 20:12:21;;;;;;;2.90;2.00;;;;;;;12.38;86.75;99153.92;432371;1265;139418;-66
2023/08/31 20:22:27;;;;;;;1.80;1.40;;;;;;;12.47;85.77;99153.23;432486;1265;141423;-67
2023/08/31 20:32:33;;;;;;;4.20;1.10;;;;;;;12.53;85.39;99162.05;432370;1267;139182;-67
2023/08/31 20:42:39;;;;;;;3.20;1.40;;;;;;;12.58;85.24;99164.79;432701;1266;140727;-66
2023/08/31 20:52:45;;;;;;;3.10;1.40;;;;;;;12.56;84.87;99168.99;432269;1270;141014;-67
2023/08/31 21:02:52;;;;;;;5.40;1.60;;;;;;;12.30;84.64;99178.94;432062;1268;139288;-68
2023/08/31 21:12:58;;;;;;;4.50;1.50;;;;;;;11.89;84.89;99180.10;432873;1267;139353;-66
2023/08/31 21:23:03;;;;;;;1.90;0.90;;;;;;;11.51;85.61;99192.39;432292;1270;139740;-66
2023/08/31 21:33:09;;;;;;;2.60;1.40;;;;;;;11.18;86.26;99198.45;432109;1268;139259;-66
2023/08/31 21:43:15;;;;;;;3.00;1.40;;;;;;;10.92;87.09;99208.69;432203;1265;139496;-65
2023/08/31 21:53:21;;;;;;;4.50;2.80;;;;;;;10.69;87.71;99219.27;432281;1265;139280;-65
2023/08/31 22:03:27;;;;;;;2.30;1.70;;;;;;;10.50;88.77;99221.27;432303;1268;139869;-69
2023/08/31 22:13:35;;;;;;;4.60;1.90;;;;;;;10.36;90.01;99231.50;432377;1267;139560;-65
2023/08/31 22:23:41;;;;;;;2.40;1.50;;;;;;;10.21;90.84;99236.52;432297;1267;139368;-66
2023/08/31 22:33:47;;;;;;;2.90;1.70;;;;;;;10.09;91.89;99237.14;432750;1268;140720;-67
2023/08/31 22:43:54;;;;;;;2.70;1.90;;;;;;;9.99;92.68;99244.27;432498;1267;139973;-68
2023/08/31 22:54:00;;;;;;;2.10;1.80;;;;;;;9.91;93.61;99246.91;432710;1269;140131;-68
2023/08/31 23:04:07;;;;;;;2.90;1.60;;;;;;;9.86;94.50;99251.77;432221;1270;139606;-66
2023/08/31 23:14:13;;;;;;;2.70;1.80;;;;;;;9.84;94.87;99253.34;432910;1268;140259;-68
2023/08/31 23:24:19;;;;;;;3.10;2.00;;;;;;;9.77;95.27;99258.45;433076;1270;140551;-67
2023/08/31 23:34:25;;;;;;;2.70;1.60;;;;;;;9.76;96.23;99262.52;432943;1270;139370;-66
2023/08/31 23:44:31;;;;;;;2.70;2.30;;;;;;;9.94;97.17;99264.70;432218;1270;140495;-67
2023/08/31 23:54:36;;;;;;;2.10;1.90;;;;;;;10.05;97.11;99262.19;432334;1268;139099;-68
